sensor_id;sensor_type;location;lat;lon;timestamp;pressure;altitude;pressure_sealevel;temperature;humidity
10658;BME280;5377;43.276;26.930;2022-08-01T00:02:18;98540.34;;;22.99;50.20
10658;BME280;5377;43.276;26.930;2022-08-01T00:04:46;98559.78;;;22.98;50.04
10658;BME280;5377;43.276;26.930;2022-08-01T00:07:13;98544.94;;;22.85;50.72
10658;BME280;5377;43.276;26.930;2022-08-01T00:09:40;98561.03;;;22.87;51.09
10658;BME280;5377;43.276;26.930;2022-08-01T00:12:07;98568.41;;;22.86;51.20
10658;BME280;5377;43.276;26.930;2022-08-01T00:14:34;98569.22;;;22.87;51.38
10658;BME280;5377;43.276;26.930;2022-08-01T00:17:00;98564.34;;;22.84;51.55
10658;BME280;5377;43.276;26.930;2022-08-01T00:19:27;98563.38;;;22.75;51.82
10658;BME280;5377;43.276;26.930;2022-08-01T00:21:56;98574.81;;;22.77;51.70
10658;BME280;5377;43.276;26.930;2022-08-01T00:24:22;98575.09;;;22.75;51.90
10658;BME280;5377;43.276;26.930;2022-08-01T00:26:49;98571.34;;;22.71;52.11
10658;BME280;5377;43.276;26.930;2022-08-01T00:29:16;98535.03;;;22.52;52.13
10658;BME280;5377;43.276;26.930;2022-08-01T00:31:43;98569.50;;;22.66;52.39
10658;BME280;5377;43.276;26.930;2022-08-01T00:34:10;98564.84;;;22.67;52.41
10658;BME280;5377;43.276;26.930;2022-08-01T00:36:36;98580.28;;;22.58;52.71
10658;BME280;5377;43.276;26.930;2022-08-01T00:39:05;98567.19;;;22.55;52.97
10658;BME280;5377;43.276;26.930;2022-08-01T00:41:32;98556.88;;;22.52;53.05
10658;BME280;5377;43.276;26.930;2022-08-01T00:44:02;98551.56;;;22.41;53.17
10658;BME280;5377;43.276;26.930;2022-08-01T00:46:29;98477.31;;;22.02;53.40
10658;BME280;5377;43.276;26.930;2022-08-01T00:48:56;98554.38;;;22.36;53.31
10658;BME280;5377;43.276;26.930;2022-08-01T00:51:24;98520.03;;;22.12;53.60
10658;BME280;5377;43.276;26.930;2022-08-01T00:53:51;98550.69;;;22.27;54.13
10658;BME280;5377;43.276;26.930;2022-08-01T00:56:21;98512.22;;;22.05;54.16
10658;BME280;5377;43.276;26.930;2022-08-01T00:58:50;98531.75;;;22.12;54.61
10658;BME280;5377;43.276;26.930;2022-08-01T01:01:18;98556.53;;;22.16;54.46
10658;BME280;5377;43.276;26.930;2022-08-01T01:03:47;98488.25;;;21.78;55.02
10658;BME280;5377;43.276;26.930;2022-08-01T01:06:21;98534.50;;;22.12;55.03
10658;BME280;5377;43.276;26.930;2022-08-01T01:08:58;98533.16;;;22.09;55.24
10658;BME280;5377;43.276;26.930;2022-08-01T01:11:32;98534.56;;;22.07;55.45
10658;BME280;5377;43.276;26.930;2022-08-01T01:14:05;98536.22;;;22.03;55.74
10658;BME280;5377;43.276;26.930;2022-08-01T01:16:37;98531.94;;;21.97;56.10
10658;BME280;5377;43.276;26.930;2022-08-01T01:19:11;98532.81;;;21.92;56.40
10658;BME280;5377;43.276;26.930;2022-08-01T01:21:55;98526.31;;;21.88;56.45
10658;BME280;5377;43.276;26.930;2022-08-01T01:24:33;98537.53;;;21.87;56.57
10658;BME280;5377;43.276;26.930;2022-08-01T01:27:11;98538.63;;;21.86;56.96
10658;BME280;5377;43.276;26.930;2022-08-01T01:29:46;98534.31;;;21.79;57.12
10658;BME280;5377;43.276;26.930;2022-08-01T01:32:18;98561.25;;;21.86;57.20
10658;BME280;5377;43.276;26.930;2022-08-01T01:34:48;98544.53;;;21.93;57.05
10658;BME280;5377;43.276;26.930;2022-08-01T01:37:19;98542.16;;;21.86;57.48
10658;BME280;5377;43.276;26.930;2022-08-01T01:39:48;98549.75;;;21.89;57.48
10658;BME280;5377;43.276;26.930;2022-08-01T01:42:17;98546.16;;;21.94;57.45
10658;BME280;5377;43.276;26.930;2022-08-01T01:44:46;98531.28;;;21.81;57.71
10658;BME280;5377;43.276;26.930;2022-08-01T01:47:16;98537.03;;;21.79;58.16
10658;BME280;5377;43.276;26.930;2022-08-01T01:49:44;98522.66;;;21.74;58.63
10658;BME280;5377;43.276;26.930;2022-08-01T01:52:14;98494.88;;;21.48;58.88
10658;BME280;5377;43.276;26.930;2022-08-01T01:54:45;98459.78;;;21.17;59.21
10658;BME280;5377;43.276;26.930;2022-08-01T01:57:14;98525.84;;;21.57;59.66
10658;BME280;5377;43.276;26.930;2022-08-01T01:59:43;98520.66;;;21.32;59.99
10658;BME280;5377;43.276;26.930;2022-08-01T02:02:13;98531.88;;;21.54;60.26
10658;BME280;5377;43.276;26.930;2022-08-01T02:04:44;98532.94;;;21.58;59.72
10658;BME280;5377;43.276;26.930;2022-08-01T02:07:13;98527.56;;;21.48;60.06
10658;BME280;5377;43.276;26.930;2022-08-01T02:09:42;98521.06;;;21.44;60.37
10658;BME280;5377;43.276;26.930;2022-08-01T02:12:10;98517.00;;;21.41;60.66
10658;BME280;5377;43.276;26.930;2022-08-01T02:14:39;98532.53;;;21.41;60.84
10658;BME280;5377;43.276;26.930;2022-08-01T02:17:09;98520.31;;;21.38;60.81
10658;BME280;5377;43.276;26.930;2022-08-01T02:19:39;98514.41;;;21.31;60.69
10658;BME280;5377;43.276;26.930;2022-08-01T02:22:09;98507.13;;;21.22;60.61
10658;BME280;5377;43.276;26.930;2022-08-01T02:24:39;98491.94;;;21.10;60.80
10658;BME280;5377;43.276;26.930;2022-08-01T02:27:10;98507.69;;;21.18;61.07
10658;BME280;5377;43.276;26.930;2022-08-01T02:29:40;98525.09;;;21.23;61.13
10658;BME280;5377;43.276;26.930;2022-08-01T02:32:11;98514.69;;;21.30;61.23
10658;BME280;5377;43.276;26.930;2022-08-01T02:34:46;98505.00;;;21.13;60.99
10658;BME280;5377;43.276;26.930;2022-08-01T02:37:13;98503.88;;;21.14;60.83
10658;BME280;5377;43.276;26.930;2022-08-01T02:39:42;98522.66;;;21.21;61.03
10658;BME280;5377;43.276;26.930;2022-08-01T02:42:11;98516.47;;;21.10;61.53
10658;BME280;5377;43.276;26.930;2022-08-01T02:44:41;98408.38;;;20.53;61.67
10658;BME280;5377;43.276;26.930;2022-08-01T02:47:09;98513.22;;;21.08;61.31
10658;BME280;5377;43.276;26.930;2022-08-01T02:49:41;98528.44;;;21.09;61.56
10658;BME280;5377;43.276;26.930;2022-08-01T02:52:13;98521.66;;;21.07;62.05
10658;BME280;5377;43.276;26.930;2022-08-01T02:54:42;98520.03;;;21.06;61.72
10658;BME280;5377;43.276;26.930;2022-08-01T02:57:10;98514.34;;;21.02;62.40
10658;BME280;5377;43.276;26.930;2022-08-01T02:59:39;98515.97;;;21.03;62.52
10658;BME280;5377;43.276;26.930;2022-08-01T03:02:07;98493.25;;;20.89;62.48
10658;BME280;5377;43.276;26.930;2022-08-01T03:04:37;98498.59;;;20.99;62.35
10658;BME280;5377;43.276;26.930;2022-08-01T03:07:06;98484.28;;;20.89;62.64
10658;BME280;5377;43.276;26.930;2022-08-01T03:09:37;98499.75;;;20.93;62.52
10658;BME280;5377;43.276;26.930;2022-08-01T03:12:08;98495.63;;;20.96;62.74
10658;BME280;5377;43.276;26.930;2022-08-01T03:14:38;98513.66;;;20.92;62.54
10658;BME280;5377;43.276;26.930;2022-08-01T03:17:07;98497.53;;;20.95;62.89
10658;BME280;5377;43.276;26.930;2022-08-01T03:19:35;98502.00;;;20.86;63.29
10658;BME280;5377;43.276;26.930;2022-08-01T03:22:06;98503.91;;;20.85;63.30
10658;BME280;5377;43.276;26.930;2022-08-01T03:24:36;98441.09;;;20.38;63.67
10658;BME280;5377;43.276;26.930;2022-08-01T03:27:06;98515.59;;;20.86;63.54
10658;BME280;5377;43.276;26.930;2022-08-01T03:29:34;98523.25;;;20.79;63.35
10658;BME280;5377;43.276;26.930;2022-08-01T03:32:03;98471.16;;;20.62;63.15
10658;BME280;5377;43.276;26.930;2022-08-01T03:34:31;98531.38;;;20.89;62.77
10658;BME280;5377;43.276;26.930;2022-08-01T03:37:02;98521.03;;;20.86;62.94
10658;BME280;5377;43.276;26.930;2022-08-01T03:39:31;98522.06;;;20.95;62.52
10658;BME280;5377;43.276;26.930;2022-08-01T03:42:07;98502.00;;;20.81;62.08
10658;BME280;5377;43.276;26.930;2022-08-01T03:48:39;98525.81;;;20.99;62.21
10658;BME280;5377;43.276;26.930;2022-08-01T03:51:07;98513.22;;;21.08;62.34
10658;BME280;5377;43.276;26.930;2022-08-01T03:53:37;98494.50;;;21.02;61.53
10658;BME280;5377;43.276;26.930;2022-08-01T03:56:06;98481.69;;;21.02;60.58
10658;BME280;5377;43.276;26.930;2022-08-01T03:58:38;98529.41;;;21.29;60.16
10658;BME280;5377;43.276;26.930;2022-08-01T04:01:06;98524.00;;;21.24;59.73
10658;BME280;5377;43.276;26.930;2022-08-01T04:03:35;98504.97;;;21.18;60.09
10658;BME280;5377;43.276;26.930;2022-08-01T04:06:04;98520.66;;;21.32;59.87
10658;BME280;5377;43.276;26.930;2022-08-01T04:08:35;98526.06;;;21.37;59.32
10658;BME280;5377;43.276;26.930;2022-08-01T04:11:02;98536.91;;;21.42;59.33
10658;BME280;5377;43.276;26.930;2022-08-01T04:13:29;98533.66;;;21.40;59.04
10658;BME280;5377;43.276;26.930;2022-08-01T04:15:58;98532.50;;;21.46;59.52
10658;BME280;5377;43.276;26.930;2022-08-01T04:18:25;98549.66;;;21.46;58.68
10658;BME280;5377;43.276;26.930;2022-08-01T04:20:51;98518.84;;;21.51;58.67
10658;BME280;5377;43.276;26.930;2022-08-01T04:23:22;98488.38;;;21.44;57.96
10658;BME280;5377;43.276;26.930;2022-08-01T04:25:50;98513.72;;;21.68;57.16
10658;BME280;5377;43.276;26.930;2022-08-01T04:28:17;98508.72;;;21.75;57.77
10658;BME280;5377;43.276;26.930;2022-08-01T04:30:47;98496.50;;;21.73;56.88
10658;BME280;5377;43.276;26.930;2022-08-01T04:33:19;98497.91;;;21.70;56.56
10658;BME280;5377;43.276;26.930;2022-08-01T04:35:47;98488.91;;;21.46;56.81
10658;BME280;5377;43.276;26.930;2022-08-01T04:38:19;98498.47;;;21.67;57.27
10658;BME280;5377;43.276;26.930;2022-08-01T04:40:48;98503.34;;;21.70;57.02
10658;BME280;5377;43.276;26.930;2022-08-01T04:43:16;98497.09;;;21.70;57.17
10658;BME280;5377;43.276;26.930;2022-08-01T04:45:45;98473.59;;;21.50;57.13
10658;BME280;5377;43.276;26.930;2022-08-01T04:48:13;98499.13;;;21.59;56.92
10658;BME280;5377;43.276;26.930;2022-08-01T04:50:43;98483.41;;;21.51;57.69
10658;BME280;5377;43.276;26.930;2022-08-01T04:53:13;98505.31;;;21.65;57.87
10658;BME280;5377;43.276;26.930;2022-08-01T04:55:40;98520.13;;;21.59;57.31
10658;BME280;5377;43.276;26.930;2022-08-01T04:58:08;98489.09;;;21.55;56.66
10658;BME280;5377;43.276;26.930;2022-08-01T05:00:35;98511.59;;;21.65;57.47
10658;BME280;5377;43.276;26.930;2022-08-01T05:03:02;98509.59;;;21.71;57.51
10658;BME280;5377;43.276;26.930;2022-08-01T05:05:29;98497.66;;;21.67;57.37
10658;BME280;5377;43.276;26.930;2022-08-01T05:07:58;98470.41;;;21.43;57.13
10658;BME280;5377;43.276;26.930;2022-08-01T05:10:25;98492.22;;;21.67;57.89
10658;BME280;5377;43.276;26.930;2022-08-01T05:12:52;98450.75;;;21.46;56.97
10658;BME280;5377;43.276;26.930;2022-08-01T05:15:21;98474.22;;;21.42;56.45
10658;BME280;5377;43.276;26.930;2022-08-01T05:17:47;98460.44;;;21.57;56.83
10658;BME280;5377;43.276;26.930;2022-08-01T05:20:14;98456.41;;;21.55;56.50
10658;BME280;5377;43.276;26.930;2022-08-01T05:22:41;98497.75;;;21.80;55.55
10658;BME280;5377;43.276;26.930;2022-08-01T05:25:10;98495.53;;;21.88;56.10
10658;BME280;5377;43.276;26.930;2022-08-01T05:27:36;98503.69;;;21.88;54.42
10658;BME280;5377;43.276;26.930;2022-08-01T05:30:06;98492.06;;;22.01;54.40
10658;BME280;5377;43.276;26.930;2022-08-01T05:32:34;98480.34;;;22.00;53.80
10658;BME280;5377;43.276;26.930;2022-08-01T05:35:01;98480.81;;;22.07;53.46
10658;BME280;5377;43.276;26.930;2022-08-01T05:37:28;98478.84;;;22.13;53.16
10658;BME280;5377;43.276;26.930;2022-08-01T05:39:55;98437.38;;;21.92;53.17
10658;BME280;5377;43.276;26.930;2022-08-01T05:42:24;98478.63;;;22.28;53.22
10658;BME280;5377;43.276;26.930;2022-08-01T05:44:51;98482.22;;;22.42;52.19
10658;BME280;5377;43.276;26.930;2022-08-01T05:47:18;98485.84;;;22.57;52.30
10658;BME280;5377;43.276;26.930;2022-08-01T05:49:45;98472.56;;;22.69;52.66
10658;BME280;5377;43.276;26.930;2022-08-01T05:52:12;98450.50;;;22.65;51.49
10658;BME280;5377;43.276;26.930;2022-08-01T05:54:39;98457.69;;;22.75;50.79
10658;BME280;5377;43.276;26.930;2022-08-01T05:57:06;98477.13;;;22.92;50.77
10658;BME280;5377;43.276;26.930;2022-08-01T05:59:35;98484.13;;;22.98;50.29
10658;BME280;5377;43.276;26.930;2022-08-01T06:02:02;98476.50;;;22.95;49.35
10658;BME280;5377;43.276;26.930;2022-08-01T06:04:28;98490.19;;;23.09;49.43
10658;BME280;5377;43.276;26.930;2022-08-01T06:06:55;98467.94;;;23.02;49.21
10658;BME280;5377;43.276;26.930;2022-08-01T06:09:22;98491.03;;;23.23;49.04
10658;BME280;5377;43.276;26.930;2022-08-01T06:11:49;98484.84;;;23.18;47.74
10658;BME280;5377;43.276;26.930;2022-08-01T06:14:16;98472.09;;;23.13;47.80
10658;BME280;5377;43.276;26.930;2022-08-01T06:16:44;98475.94;;;23.12;47.66
10658;BME280;5377;43.276;26.930;2022-08-01T06:19:11;98476.66;;;23.18;47.31
10658;BME280;5377;43.276;26.930;2022-08-01T06:21:38;98459.75;;;23.16;47.48
10658;BME280;5377;43.276;26.930;2022-08-01T06:24:05;98450.25;;;23.13;47.30
10658;BME280;5377;43.276;26.930;2022-08-01T06:26:32;98460.66;;;23.11;47.01
10658;BME280;5377;43.276;26.930;2022-08-01T06:29:00;98469.97;;;23.24;47.68
10658;BME280;5377;43.276;26.930;2022-08-01T06:31:27;98471.53;;;23.30;47.47
10658;BME280;5377;43.276;26.930;2022-08-01T06:33:55;98450.94;;;23.19;47.35
10658;BME280;5377;43.276;26.930;2022-08-01T06:36:22;98439.00;;;23.15;46.69
10658;BME280;5377;43.276;26.930;2022-08-01T06:38:51;98470.41;;;23.45;47.27
10658;BME280;5377;43.276;26.930;2022-08-01T06:41:17;98473.97;;;23.45;47.34
10658;BME280;5377;43.276;26.930;2022-08-01T06:43:44;98478.63;;;23.45;47.02
10658;BME280;5377;43.276;26.930;2022-08-01T06:46:11;98470.00;;;23.51;46.77
10658;BME280;5377;43.276;26.930;2022-08-01T06:48:38;98448.44;;;23.50;47.00
10658;BME280;5377;43.276;26.930;2022-08-01T06:51:06;98465.91;;;23.68;46.87
10658;BME280;5377;43.276;26.930;2022-08-01T06:53:40;98452.78;;;23.92;46.72
10658;BME280;5377;43.276;26.930;2022-08-01T06:56:07;98380.13;;;23.50;46.40
10658;BME280;5377;43.276;26.930;2022-08-01T06:58:35;98425.25;;;23.88;46.41
10658;BME280;5377;43.276;26.930;2022-08-01T07:01:03;98454.34;;;24.20;46.16
10658;BME280;5377;43.276;26.930;2022-08-01T07:03:31;98445.03;;;24.21;45.72
10658;BME280;5377;43.276;26.930;2022-08-01T07:05:58;98475.84;;;24.41;46.06
10658;BME280;5377;43.276;26.930;2022-08-01T07:08:26;98430.91;;;24.42;44.91
10658;BME280;5377;43.276;26.930;2022-08-01T07:10:53;98421.34;;;24.31;45.00
10658;BME280;5377;43.276;26.930;2022-08-01T07:13:21;98428.56;;;24.49;45.15
10658;BME280;5377;43.276;26.930;2022-08-01T07:15:50;98412.31;;;24.52;44.59
10658;BME280;5377;43.276;26.930;2022-08-01T07:18:18;98430.63;;;24.66;44.47
10658;BME280;5377;43.276;26.930;2022-08-01T07:20:45;98423.56;;;24.73;44.53
10658;BME280;5377;43.276;26.930;2022-08-01T07:23:12;98429.84;;;24.74;44.46
10658;BME280;5377;43.276;26.930;2022-08-01T07:25:41;98429.78;;;24.87;44.21
10658;BME280;5377;43.276;26.930;2022-08-01T07:28:08;98413.06;;;24.98;44.18
10658;BME280;5377;43.276;26.930;2022-08-01T07:30:35;98432.56;;;25.18;43.56
10658;BME280;5377;43.276;26.930;2022-08-01T07:33:03;98346.53;;;24.66;43.20
10658;BME280;5377;43.276;26.930;2022-08-01T07:35:30;98433.34;;;25.19;43.28
10658;BME280;5377;43.276;26.930;2022-08-01T07:37:57;98437.44;;;25.30;44.47
10658;BME280;5377;43.276;26.930;2022-08-01T07:40:24;98425.06;;;25.41;43.40
10658;BME280;5377;43.276;26.930;2022-08-01T07:42:52;98436.97;;;25.68;42.79
10658;BME280;5377;43.276;26.930;2022-08-01T07:45:19;98429.00;;;25.58;42.80
10658;BME280;5377;43.276;26.930;2022-08-01T07:47:46;98439.75;;;25.45;42.21
10658;BME280;5377;43.276;26.930;2022-08-01T07:50:15;98424.97;;;25.15;42.88
10658;BME280;5377;43.276;26.930;2022-08-01T07:52:42;98432.38;;;25.15;43.18
10658;BME280;5377;43.276;26.930;2022-08-01T07:55:09;98437.44;;;25.30;43.33
10658;BME280;5377;43.276;26.930;2022-08-01T07:57:37;98397.03;;;25.05;43.82
10658;BME280;5377;43.276;26.930;2022-08-01T08:00:06;98437.72;;;25.20;43.52
10658;BME280;5377;43.276;26.930;2022-08-01T08:02:34;98426.41;;;25.13;43.35
10658;BME280;5377;43.276;26.930;2022-08-01T08:05:01;98441.53;;;25.41;43.56
10658;BME280;5377;43.276;26.930;2022-08-01T08:07:29;98436.56;;;25.61;42.57
10658;BME280;5377;43.276;26.930;2022-08-01T08:09:56;98449.59;;;25.46;42.90
10658;BME280;5377;43.276;26.930;2022-08-01T08:12:23;98442.31;;;25.33;42.74
10658;BME280;5377;43.276;26.930;2022-08-01T08:14:49;98440.75;;;25.49;42.51
10658;BME280;5377;43.276;26.930;2022-08-01T08:17:18;98435.44;;;25.53;42.93
10658;BME280;5377;43.276;26.930;2022-08-01T08:19:44;98445.72;;;25.78;42.78
10658;BME280;5377;43.276;26.930;2022-08-01T08:22:11;98438.28;;;25.70;42.07
10658;BME280;5377;43.276;26.930;2022-08-01T08:24:38;98373.84;;;25.11;42.31
10658;BME280;5377;43.276;26.930;2022-08-01T08:27:05;98449.03;;;25.67;42.11
10658;BME280;5377;43.276;26.930;2022-08-01T08:29:33;98458.28;;;25.71;42.23
10658;BME280;5377;43.276;26.930;2022-08-01T08:32:00;98438.78;;;25.98;42.43
10658;BME280;5377;43.276;26.930;2022-08-01T08:34:29;98442.38;;;26.16;41.51
10658;BME280;5377;43.276;26.930;2022-08-01T08:36:56;98431.78;;;26.40;41.31
10658;BME280;5377;43.276;26.930;2022-08-01T08:39:26;98444.00;;;26.78;40.88
10658;BME280;5377;43.276;26.930;2022-08-01T08:41:56;98430.56;;;27.02;40.08
10658;BME280;5377;43.276;26.930;2022-08-01T08:44:24;98430.91;;;26.83;40.26
10658;BME280;5377;43.276;26.930;2022-08-01T08:46:52;98421.31;;;26.98;39.93
10658;BME280;5377;43.276;26.930;2022-08-01T08:49:23;98432.88;;;27.29;39.35
10658;BME280;5377;43.276;26.930;2022-08-01T08:51:52;98434.59;;;27.51;38.66
10658;BME280;5377;43.276;26.930;2022-08-01T08:54:21;98430.16;;;27.68;38.62
10658;BME280;5377;43.276;26.930;2022-08-01T08:56:53;98464.91;;;27.81;38.90
10658;BME280;5377;43.276;26.930;2022-08-01T08:59:20;98407.78;;;27.99;38.72
10658;BME280;5377;43.276;26.930;2022-08-01T09:01:49;98422.38;;;28.41;37.68
10658;BME280;5377;43.276;26.930;2022-08-01T09:04:16;98440.72;;;28.57;37.97
10658;BME280;5377;43.276;26.930;2022-08-01T09:06:43;98440.66;;;28.99;37.85
10658;BME280;5377;43.276;26.930;2022-08-01T09:09:11;98425.19;;;29.19;37.18
10658;BME280;5377;43.276;26.930;2022-08-01T09:11:38;98433.84;;;28.84;36.77
10658;BME280;5377;43.276;26.930;2022-08-01T09:14:07;98444.28;;;29.24;37.21
10658;BME280;5377;43.276;26.930;2022-08-01T09:16:37;98444.41;;;29.15;37.28
10658;BME280;5377;43.276;26.930;2022-08-01T09:19:11;98449.22;;;29.18;38.12
10658;BME280;5377;43.276;26.930;2022-08-01T09:21:39;98443.94;;;29.26;37.35
10658;BME280;5377;43.276;26.930;2022-08-01T09:24:15;98442.09;;;29.30;37.38
10658;BME280;5377;43.276;26.930;2022-08-01T09:26:42;98448.44;;;28.64;38.03
10658;BME280;5377;43.276;26.930;2022-08-01T09:29:18;98445.00;;;28.88;37.81
10658;BME280;5377;43.276;26.930;2022-08-01T09:31:46;98456.59;;;29.27;37.69
10658;BME280;5377;43.276;26.930;2022-08-01T09:34:14;98430.94;;;28.81;37.80
10658;BME280;5377;43.276;26.930;2022-08-01T09:36:45;98432.94;;;28.93;38.48
10658;BME280;5377;43.276;26.930;2022-08-01T09:39:19;98423.19;;;28.95;37.47
10658;BME280;5377;43.276;26.930;2022-08-01T09:41:46;98436.50;;;28.93;38.01
10658;BME280;5377;43.276;26.930;2022-08-01T09:44:13;98429.44;;;29.16;37.67
10658;BME280;5377;43.276;26.930;2022-08-01T09:46:54;98430.59;;;29.15;37.98
10658;BME280;5377;43.276;26.930;2022-08-01T09:49:29;98429.22;;;29.22;38.41
10658;BME280;5377;43.276;26.930;2022-08-01T09:51:57;98407.56;;;28.66;38.97
10658;BME280;5377;43.276;26.930;2022-08-01T09:54:30;98430.44;;;28.79;39.21
10658;BME280;5377;43.276;26.930;2022-08-01T09:57:12;98445.81;;;28.88;40.02
10658;BME280;5377;43.276;26.930;2022-08-01T09:59:40;98443.13;;;28.80;40.46
10658;BME280;5377;43.276;26.930;2022-08-01T10:02:09;98439.75;;;28.95;40.99
10658;BME280;5377;43.276;26.930;2022-08-01T10:04:46;98446.25;;;29.36;41.08
10658;BME280;5377;43.276;26.930;2022-08-01T10:07:14;98425.53;;;29.17;41.36
10658;BME280;5377;43.276;26.930;2022-08-01T10:09:43;98445.97;;;29.62;41.22
10658;BME280;5377;43.276;26.930;2022-08-01T10:12:12;98451.53;;;29.29;41.63
10658;BME280;5377;43.276;26.930;2022-08-01T10:14:40;98436.03;;;29.48;41.86
10658;BME280;5377;43.276;26.930;2022-08-01T10:17:09;98447.91;;;29.49;40.92
10658;BME280;5377;43.276;26.930;2022-08-01T10:19:40;98441.34;;;29.78;39.13
10658;BME280;5377;43.276;26.930;2022-08-01T10:22:08;98447.00;;;29.69;39.68
10658;BME280;5377;43.276;26.930;2022-08-01T10:24:37;98447.63;;;29.30;41.10
10658;BME280;5377;43.276;26.930;2022-08-01T10:27:07;98445.50;;;29.60;41.41
10658;BME280;5377;43.276;26.930;2022-08-01T10:29:41;98439.31;;;30.39;39.17
10658;BME280;5377;43.276;26.930;2022-08-01T10:32:09;98427.72;;;30.90;38.30
10658;BME280;5377;43.276;26.930;2022-08-01T10:34:36;98428.94;;;31.68;37.73
10658;BME280;5377;43.276;26.930;2022-08-01T10:37:04;98425.91;;;32.43;37.09
10658;BME280;5377;43.276;26.930;2022-08-01T10:39:31;98430.25;;;31.89;36.72
10658;BME280;5377;43.276;26.930;2022-08-01T10:42:00;98412.44;;;31.24;38.08
10658;BME280;5377;43.276;26.930;2022-08-01T10:44:30;98436.13;;;30.65;38.66
10658;BME280;5377;43.276;26.930;2022-08-01T10:47:02;98435.94;;;30.06;39.92
10658;BME280;5377;43.276;26.930;2022-08-01T10:49:34;98423.88;;;29.62;41.71
10658;BME280;5377;43.276;26.930;2022-08-01T10:52:04;98434.28;;;30.17;40.65
10658;BME280;5377;43.276;26.930;2022-08-01T10:54:39;98434.44;;;30.21;38.59
10658;BME280;5377;43.276;26.930;2022-08-01T10:57:07;98439.56;;;30.34;39.05
10658;BME280;5377;43.276;26.930;2022-08-01T10:59:35;98440.88;;;30.00;39.67
10658;BME280;5377;43.276;26.930;2022-08-01T11:02:05;98434.22;;;29.89;39.91
10658;BME280;5377;43.276;26.930;2022-08-01T11:04:41;98433.06;;;29.78;40.47
10658;BME280;5377;43.276;26.930;2022-08-01T11:07:16;98442.75;;;29.60;40.48
10658;BME280;5377;43.276;26.930;2022-08-01T11:09:45;98328.88;;;28.90;40.00
10658;BME280;5377;43.276;26.930;2022-08-01T11:12:14;98432.44;;;29.36;40.37
10658;BME280;5377;43.276;26.930;2022-08-01T11:15:20;98432.13;;;29.74;40.29
10658;BME280;5377;43.276;26.930;2022-08-01T11:17:58;98413.16;;;29.48;40.71
10658;BME280;5377;43.276;26.930;2022-08-01T11:20:27;98417.84;;;29.35;41.03
10658;BME280;5377;43.276;26.930;2022-08-01T11:23:23;98425.09;;;29.28;40.75
10658;BME280;5377;43.276;26.930;2022-08-01T11:26:15;98429.00;;;29.27;40.67
10658;BME280;5377;43.276;26.930;2022-08-01T11:28:44;98374.00;;;28.85;39.44
10658;BME280;5377;43.276;26.930;2022-08-01T11:31:32;98428.31;;;29.42;39.15
10658;BME280;5377;43.276;26.930;2022-08-01T11:34:00;98402.44;;;29.34;39.91
10658;BME280;5377;43.276;26.930;2022-08-01T11:36:27;98423.41;;;29.60;40.48
10658;BME280;5377;43.276;26.930;2022-08-01T11:39:14;98390.03;;;29.89;39.99
10658;BME280;5377;43.276;26.930;2022-08-01T11:41:43;98399.78;;;29.99;40.34
10658;BME280;5377;43.276;26.930;2022-08-01T11:44:12;98402.34;;;30.04;39.92
10658;BME280;5377;43.276;26.930;2022-08-01T11:46:56;98404.88;;;30.37;38.58
10658;BME280;5377;43.276;26.930;2022-08-01T11:49:30;98396.97;;;30.63;38.43
10658;BME280;5377;43.276;26.930;2022-08-01T11:52:04;98241.78;;;29.25;38.87
10658;BME280;5377;43.276;26.930;2022-08-01T11:54:32;98410.59;;;30.16;38.58
10658;BME280;5377;43.276;26.930;2022-08-01T11:57:02;98409.50;;;30.33;38.58
10658;BME280;5377;43.276;26.930;2022-08-01T11:59:35;98392.41;;;30.15;38.02
10658;BME280;5377;43.276;26.930;2022-08-01T12:02:24;98406.50;;;29.86;38.48
10658;BME280;5377;43.276;26.930;2022-08-01T12:04:54;98409.41;;;29.53;39.37
10658;BME280;5377;43.276;26.930;2022-08-01T12:07:22;98408.31;;;29.33;40.55
10658;BME280;5377;43.276;26.930;2022-08-01T12:09:57;98411.94;;;29.12;41.35
10658;BME280;5377;43.276;26.930;2022-08-01T12:12:26;98392.81;;;28.83;41.60
10658;BME280;5377;43.276;26.930;2022-08-01T12:14:54;98381.53;;;29.21;41.13
10658;BME280;5377;43.276;26.930;2022-08-01T12:17:29;98400.03;;;29.81;40.88
10658;BME280;5377;43.276;26.930;2022-08-01T12:19:57;98389.44;;;30.08;39.88
10658;BME280;5377;43.276;26.930;2022-08-01T12:22:24;98377.50;;;29.92;38.95
10658;BME280;5377;43.276;26.930;2022-08-01T12:24:52;98386.03;;;29.87;38.52
10658;BME280;5377;43.276;26.930;2022-08-01T12:27:27;98392.38;;;29.63;39.17
10658;BME280;5377;43.276;26.930;2022-08-01T12:29:54;98393.53;;;29.49;39.64
10658;BME280;5377;43.276;26.930;2022-08-01T12:32:24;98397.03;;;29.38;39.91
10658;BME280;5377;43.276;26.930;2022-08-01T12:34:54;98394.53;;;29.33;40.65
10658;BME280;5377;43.276;26.930;2022-08-01T12:37:22;98392.56;;;29.21;41.72
10658;BME280;5377;43.276;26.930;2022-08-01T12:39:49;98396.28;;;29.62;41.47
10658;BME280;5377;43.276;26.930;2022-08-01T12:42:16;98350.22;;;29.90;40.59
10658;BME280;5377;43.276;26.930;2022-08-01T12:44:44;98376.16;;;30.54;40.30
10658;BME280;5377;43.276;26.930;2022-08-01T12:47:13;98365.50;;;31.27;39.46
10658;BME280;5377;43.276;26.930;2022-08-01T12:49:42;98366.25;;;31.59;38.86
10658;BME280;5377;43.276;26.930;2022-08-01T12:52:12;98364.34;;;31.79;37.04
10658;BME280;5377;43.276;26.930;2022-08-01T12:55:08;98371.88;;;31.63;37.62
10658;BME280;5377;43.276;26.930;2022-08-01T12:57:36;98369.81;;;31.13;36.63
10658;BME280;5377;43.276;26.930;2022-08-01T13:00:12;98369.09;;;30.84;37.57
10658;BME280;5377;43.276;26.930;2022-08-01T13:02:40;98376.31;;;30.73;37.55
10658;BME280;5377;43.276;26.930;2022-08-01T13:05:08;98370.72;;;30.57;38.25
10658;BME280;5377;43.276;26.930;2022-08-01T13:07:42;98370.84;;;30.61;38.29
10658;BME280;5377;43.276;26.930;2022-08-01T13:10:12;98357.94;;;30.53;38.28
10658;BME280;5377;43.276;26.930;2022-08-01T13:12:40;98376.38;;;30.49;38.26
10658;BME280;5377;43.276;26.930;2022-08-01T13:15:18;98379.25;;;30.52;38.60
10658;BME280;5377;43.276;26.930;2022-08-01T13:17:46;98378.31;;;30.88;38.29